Time;durP1;ratioP1;P1;durP2;ratioP2;P2;SDS_P1;SDS_P2;PMS_P1;PMS_P2;Temp;Humidity;BMP_temperature;BMP_pressure;BME280_temperature;BME280_humidity;BME280_pressure;Samples;Min_cycle;Max_cycle;Signal;HPM_P1;HPM_P2
2021/05/16 00:00:29;;;;;;;13.50;2.95;;;10.50;99.90;;;;;;10350433;28;20512;-84
2021/05/16 00:05:50;;;;;;;5.18;2.13;;;10.60;99.90;;;;;;10344728;28;20041;-84
2021/05/16 00:11:11;;;;;;;9.60;2.63;;;10.50;99.90;;;;;;10348755;28;20932;-84
2021/05/16 00:16:32;;;;;;;4.57;2.40;;;10.50;99.90;;;;;;10319033;28;20085;-83
2021/05/16 00:21:53;;;;;;;5.88;2.80;;;10.40;99.90;;;;;;10334896;28;20045;-84
2021/05/16 00:27:14;;;;;;;6.15;2.22;;;10.50;99.90;;;;;;10323352;28;20038;-83
2021/05/16 00:32:35;;;;;;;6.65;2.67;;;10.50;99.90;;;;;;10349921;28;20049;-84
2021/05/16 00:37:58;;;;;;;12.88;3.38;;;10.60;99.90;;;;;;10347105;28;20469;-83
2021/05/16 00:43:20;;;;;;;11.98;2.75;;;10.60;99.90;;;;;;10344248;28;20046;-84
2021/05/16 00:48:41;;;;;;;8.02;2.65;;;10.60;99.90;;;;;;10348211;28;20057;-84
2021/05/16 00:54:05;;;;;;;5.60;2.78;;;10.70;99.90;;;;;;10331961;28;20054;-84
2021/05/16 00:59:26;;;;;;;6.07;2.80;;;10.80;99.90;;;;;;10333121;28;20106;-84
2021/05/16 01:04:47;;;;;;;8.23;2.92;;;10.80;99.90;;;;;;10332482;28;20042;-84
2021/05/16 01:10:10;;;;;;;11.75;4.20;;;10.80;99.90;;;;;;10319449;28;20069;-85
2021/05/16 01:15:33;;;;;;;6.78;2.75;;;10.80;99.90;;;;;;10330019;28;20127;-83
2021/05/16 01:20:54;;;;;;;7.88;3.55;;;10.80;99.90;;;;;;10331242;28;20260;-83
2021/05/16 01:26:15;;;;;;;7.85;2.95;;;11.00;99.90;;;;;;10333410;28;20038;-83
2021/05/16 01:31:36;;;;;;;4.43;2.10;;;11.00;99.90;;;;;;10313424;28;20121;-84
2021/05/16 01:36:57;;;;;;;7.45;2.45;;;11.10;99.90;;;;;;10316172;28;20073;-83
2021/05/16 01:42:19;;;;;;;4.07;1.90;;;11.00;99.90;;;;;;10326252;28;20053;-84
2021/05/16 01:47:40;;;;;;;6.72;2.17;;;10.90;99.90;;;;;;10333244;28;22889;-84
2021/05/16 01:53:03;;;;;;;5.40;2.47;;;10.90;99.90;;;;;;10318859;28;20132;-83
2021/05/16 01:58:26;;;;;;;8.43;2.50;;;10.80;99.90;;;;;;10322822;28;20802;-83
2021/05/16 02:03:48;;;;;;;8.15;2.45;;;10.70;99.90;;;;;;10326067;28;20061;-83
2021/05/16 02:09:08;;;;;;;8.40;2.72;;;10.80;99.90;;;;;;10314746;28;20823;-83
2021/05/16 02:14:31;;;;;;;6.50;2.10;;;10.70;99.90;;;;;;10316319;28;20049;-84
2021/05/16 02:19:52;;;;;;;6.40;2.80;;;10.70;99.90;;;;;;10337495;28;20046;-82
2021/05/16 02:25:14;;;;;;;8.20;2.67;;;10.80;99.90;;;;;;10316437;28;20041;-83
2021/05/16 02:36:58;;;;;;;9.30;3.47;;;10.90;99.90;;;;;;2442284;22;20136;-93
2021/05/16 02:42:19;;;;;;;22.63;4.35;;;11.00;99.90;;;;;;10294135;28;20157;-92
2021/05/16 02:47:40;;;;;;;19.60;4.18;;;10.90;99.90;;;;;;10285540;28;20067;-92
2021/05/16 02:53:01;;;;;;;9.07;3.80;;;10.80;99.90;;;;;;10297210;28;20038;-92
2021/05/16 02:58:23;;;;;;;11.95;3.80;;;10.90;99.90;;;;;;10261582;28;20031;-92
2021/05/16 03:03:43;;;;;;;13.23;2.55;;;10.80;99.90;;;;;;10241494;28;20142;-92
2021/05/16 03:09:05;;;;;;;15.52;5.18;;;10.80;99.90;;;;;;10245365;28;20122;-93
2021/05/16 03:14:29;;;;;;;14.45;3.60;;;10.80;99.90;;;;;;10242513;28;20127;-92
2021/05/16 03:19:50;;;;;;;17.98;5.45;;;10.80;99.90;;;;;;10252384;28;20078;-92
2021/05/16 03:25:12;;;;;;;13.95;3.45;;;10.70;99.90;;;;;;10230667;28;20111;-93
2021/05/16 03:30:33;;;;;;;9.90;3.42;;;10.70;99.90;;;;;;10260077;28;20047;-92
2021/05/16 03:35:54;;;;;;;6.88;2.42;;;10.70;99.90;;;;;;10250473;28;20073;-93
2021/05/16 03:41:16;;;;;;;13.48;4.57;;;10.70;99.90;;;;;;10251303;28;20054;-92
2021/05/16 03:46:36;;;;;;;12.23;2.35;;;10.70;99.90;;;;;;10242648;28;20045;-92
2021/05/16 03:51:58;;;;;;;13.10;2.67;;;10.60;99.90;;;;;;10255006;28;20607;-92
2021/05/16 03:57:22;;;;;;;8.30;3.22;;;10.50;99.90;;;;;;10248471;28;20111;-92
2021/05/16 04:02:45;;;;;;;12.20;4.13;;;10.60;99.90;;;;;;10264473;28;20038;-92
2021/05/16 04:08:06;;;;;;;8.18;2.97;;;10.60;99.90;;;;;;10270970;28;20140;-92
2021/05/16 04:13:27;;;;;;;8.07;1.90;;;10.60;99.90;;;;;;10261733;28;20236;-91
2021/05/16 04:18:48;;;;;;;13.70;3.83;;;10.50;99.90;;;;;;10238690;28;20611;-93
2021/05/16 04:24:10;;;;;;;10.68;2.53;;;10.40;99.90;;;;;;10264308;28;20046;-92
2021/05/16 04:29:31;;;;;;;12.25;2.83;;;10.50;99.90;;;;;;10247513;28;20093;-92
2021/05/16 04:34:52;;;;;;;12.00;2.47;;;10.40;99.90;;;;;;10264332;28;21049;-93
2021/05/16 04:40:13;;;;;;;10.73;3.20;;;10.40;99.90;;;;;;10236537;28;20061;-92
2021/05/16 04:45:35;;;;;;;7.90;1.73;;;10.40;99.90;;;;;;10259053;28;20414;-92
2021/05/16 04:50:56;;;;;;;7.30;2.80;;;10.50;99.90;;;;;;10271716;28;20868;-92
2021/05/16 04:56:17;;;;;;;4.90;1.25;;;10.50;99.90;;;;;;10274149;28;20043;-92
2021/05/16 05:01:38;;;;;;;4.32;1.60;;;10.60;99.90;;;;;;10248651;28;20057;-91
2021/05/16 05:06:59;;;;;;;4.43;1.77;;;10.50;99.90;;;;;;10260899;28;20438;-92
2021/05/16 05:12:20;;;;;;;7.57;1.50;;;10.50;99.90;;;;;;10245919;28;20049;-93
2021/05/16 05:17:41;;;;;;;4.50;1.35;;;10.50;99.90;;;;;;10271801;28;20466;-91
2021/05/16 05:23:03;;;;;;;4.38;1.65;;;10.50;99.90;;;;;;10255448;28;20179;-92
2021/05/16 05:28:27;;;;;;;4.65;1.10;;;10.50;99.90;;;;;;10275996;28;20668;-92
2021/05/16 05:47:07;;;;;;;6.80;1.60;;;10.50;99.90;;;;;;10316316;28;20054;-48
2021/05/16 05:53:04;;;;;;;3.72;1.55;;;10.60;99.90;;;;;;10261354;28;20046;-49
2021/05/16 05:58:41;;;;;;;10.20;2.35;;;10.60;99.90;;;;;;10244225;28;20041;-49
2021/05/16 06:04:02;;;;;;;5.45;2.33;;;10.80;99.90;;;;;;10260279;28;20426;-49
2021/05/16 06:09:30;;;;;;;11.05;2.75;;;11.00;99.90;;;;;;10281349;28;20046;-48
2021/05/16 06:14:53;;;;;;;7.15;2.53;;;11.10;99.90;;;;;;10284245;28;20035;-49
2021/05/16 06:20:34;;;;;;;;;;;;;;;;;;;;;
2021/05/16 06:25:55;;;;;;;6.20;2.53;;;11.30;99.90;;;;;;10293939;28;21352;-49
2021/05/16 06:31:16;;;;;;;23.63;4.03;;;11.40;99.90;;;;;;10278113;28;20042;-49
2021/05/16 06:36:40;;;;;;;13.73;2.80;;;11.70;99.90;;;;;;10301649;28;20035;-49
2021/05/16 06:42:37;;;;;;;9.00;3.28;;;11.70;99.90;;;;;;10297474;28;20731;-49
2021/05/16 06:48:07;;;;;;;16.77;3.38;;;11.90;99.90;;;;;;10255535;28;20125;-49
2021/05/16 07:02:52;;;;;;;9.75;3.28;;;11.90;99.90;;;;;;10277095;27;72793;-49
2021/05/16 07:07:53;;;;;;;8.45;2.90;;;12.00;99.90;;;;;;10245783;28;20475;-48
2021/05/16 07:12:59;;;;;;;7.82;3.55;;;12.10;99.90;;;;;;10248329;28;20070;-49
2021/05/16 07:18:15;;;;;;;5.90;2.95;;;12.10;99.90;;;;;;10200791;28;20581;-49
2021/05/16 07:23:25;;;;;;;10.18;2.55;;;12.00;99.90;;;;;;10273270;28;20156;-48
2021/05/16 07:28:35;;;;;;;10.52;1.83;;;12.10;99.90;;;;;;10259777;28;20107;-48
2021/05/16 07:33:57;;;;;;;13.88;2.47;;;12.20;99.90;;;;;;10233477;28;20040;-48
2021/05/16 07:39:10;;;;;;;8.88;2.33;;;12.30;99.90;;;;;;10241409;28;20508;-49
2021/05/16 07:44:14;;;;;;;6.45;2.60;;;12.30;99.90;;;;;;10222194;28;20544;-49
2021/05/16 07:49:18;;;;;;;8.82;2.67;;;12.60;99.90;;;;;;10225738;28;20068;-49
2021/05/16 07:54:19;;;;;;;7.95;2.05;;;12.90;99.90;;;;;;10202249;28;20057;-49
2021/05/16 07:59:28;;;;;;;11.20;3.25;;;13.20;99.90;;;;;;10183638;28;20045;-48
2021/05/16 08:04:35;;;;;;;8.10;2.35;;;13.30;99.90;;;;;;10268593;28;20073;-49
2021/05/16 08:16:08;;;;;;;;;;;;;;;;;;;;;
2021/05/16 08:21:26;;;;;;;3.47;1.30;;;13.60;99.90;;;;;;10162693;28;20083;-50
2021/05/16 08:26:36;;;;;;;6.10;1.58;;;12.70;99.90;;;;;;10199914;28;20060;-49
2021/05/16 08:31:42;;;;;;;1.83;0.73;;;12.00;99.90;;;;;;10172579;28;20677;-48
2021/05/16 08:36:46;;;;;;;3.45;0.63;;;11.30;99.90;;;;;;10235935;28;20514;-49
2021/05/16 08:41:47;;;;;;;2.95;0.60;;;10.50;99.90;;;;;;10240281;28;20600;-50
2021/05/16 08:46:48;;;;;;;4.22;1.20;;;10.20;99.90;;;;;;10179206;28;20084;-49
2021/05/16 08:51:52;;;;;;;1.92;0.77;;;10.20;99.90;;;;;;10184477;28;20143;-48
2021/05/16 08:57:05;;;;;;;2.50;0.80;;;10.40;99.90;;;;;;10200592;28;21943;-48
2021/05/16 09:02:07;;;;;;;0.95;0.40;;;10.30;99.90;;;;;;10178358;28;20199;-48
2021/05/16 09:07:08;;;;;;;3.83;0.85;;;10.10;99.90;;;;;;10132421;28;20037;-48
2021/05/16 09:12:32;;;;;;;1.63;0.50;;;10.10;99.90;;;;;;10089792;28;20234;-48
2021/05/16 09:17:40;;;;;;;1.65;0.70;;;10.10;99.90;;;;;;10115980;28;20197;-48
2021/05/16 09:23:25;;;;;;;4.22;0.98;;;10.20;99.90;;;;;;10218946;28;20093;-49
2021/05/16 09:28:59;;;;;;;4.72;0.75;;;10.40;99.90;;;;;;10171798;28;20036;-48
2021/05/16 09:34:12;;;;;;;2.03;0.70;;;10.70;99.90;;;;;;10133228;28;20045;-48
2021/05/16 09:39:28;;;;;;;3.97;1.20;;;11.00;99.90;;;;;;10172175;28;20583;-48
2021/05/16 09:44:41;;;;;;;7.63;1.50;;;11.60;99.90;;;;;;10171513;28;20075;-48
2021/05/16 09:50:17;;;;;;;4.80;1.52;;;12.00;99.90;;;;;;10173083;28;20489;-48
2021/05/16 09:55:24;;;;;;;2.97;1.50;;;11.90;99.90;;;;;;10112401;28;20044;-48
2021/05/16 10:00:38;;;;;;;7.97;1.30;;;11.80;99.90;;;;;;10402006;28;20053;-48
2021/05/16 10:06:25;;;;;;;3.35;1.65;;;11.60;99.90;;;;;;10366962;28;20040;-48
2021/05/16 10:12:22;;;;;;;3.38;0.82;;;11.40;99.90;;;;;;10360534;28;686800;-48
2021/05/16 10:17:32;;;;;;;4.20;1.17;;;11.40;99.90;;;;;;10356966;28;20055;-48
2021/05/16 10:22:41;;;;;;;3.90;1.48;;;11.40;99.90;;;;;;10355877;28;20045;-48
2021/05/16 10:27:44;;;;;;;1.70;0.50;;;11.20;99.90;;;;;;10376852;28;20041;-49
2021/05/16 10:33:09;;;;;;;3.33;1.15;;;11.10;99.90;;;;;;10406575;28;20447;-49
2021/05/16 10:38:33;;;;;;;1.77;0.60;;;11.00;99.90;;;;;;10362188;28;20047;-49
2021/05/16 10:43:43;;;;;;;4.65;1.27;;;11.20;99.90;;;;;;10361548;28;20041;-48
2021/05/16 10:49:30;;;;;;;6.60;2.40;;;11.70;99.90;;;;;;10368660;28;20384;-48
2021/05/16 10:55:41;;;;;;;2.78;0.93;;;12.40;99.90;;;;;;10362314;28;20029;-48
2021/05/16 11:01:06;;;;;;;4.87;1.13;;;12.50;99.90;;;;;;10281656;28;2767094;-48
2021/05/16 11:06:07;;;;;;;3.90;0.88;;;12.40;99.90;;;;;;10410255;28;20358;-48
2021/05/16 11:11:33;;;;;;;5.28;0.85;;;12.00;99.90;;;;;;10298807;28;20126;-48
2021/05/16 11:16:35;;;;;;;3.67;0.90;;;11.90;99.90;;;;;;10163266;28;20160;-48
2021/05/16 11:21:36;;;;;;;1.20;0.75;;;12.00;99.90;;;;;;10136463;28;20812;-48
2021/05/16 11:26:37;;;;;;;5.85;1.23;;;12.30;99.90;;;;;;10131364;28;25300;-48
2021/05/16 11:31:38;;;;;;;4.65;1.30;;;12.90;99.90;;;;;;10294831;28;20047;-49
2021/05/16 11:36:39;;;;;;;4.60;1.00;;;13.40;99.90;;;;;;10396620;28;20510;-49
2021/05/16 11:41:43;;;;;;;5.03;1.17;;;13.80;99.90;;;;;;10397025;28;20102;-49
2021/05/16 11:46:45;;;;;;;2.67;0.88;;;13.90;99.90;;;;;;10406809;28;20376;-49
2021/05/16 11:51:46;;;;;;;2.40;1.27;;;13.60;99.90;;;;;;10408941;28;20041;-48
2021/05/16 12:03:22;;;;;;;6.00;2.05;;;13.20;99.90;;;;;;10141355;28;20318;-48
2021/05/16 12:08:24;;;;;;;5.18;1.73;;;12.80;99.90;;;;;;10120227;28;20583;-48
2021/05/16 12:13:25;;;;;;;5.00;1.42;;;12.80;99.90;;;;;;10129079;28;20208;-48
2021/05/16 12:18:28;;;;;;;2.90;1.30;;;12.90;99.90;;;;;;10134743;28;20528;-48
2021/05/16 12:23:29;;;;;;;5.57;1.77;;;12.90;99.90;;;;;;10148723;28;20614;-48
2021/05/16 12:28:31;;;;;;;3.53;0.90;;;12.80;99.90;;;;;;10156433;28;25963;-48
2021/05/16 12:33:39;;;;;;;;;;;12.60;99.90;;;;;;10153201;28;20484;-47
2021/05/16 12:38:46;;;;;;;3.80;0.98;;;11.70;99.90;;;;;;10116960;28;19933;-47
2021/05/16 12:44:12;;;;;;;2.15;0.80;;;11.40;99.90;;;;;;10108757;28;20046;-47
2021/05/16 12:49:20;;;;;;;2.95;1.05;;;11.30;99.90;;;;;;10203206;28;20413;-48
2021/05/16 12:54:26;;;;;;;3.00;1.15;;;11.40;99.90;;;;;;10365457;28;20053;-48
2021/05/16 12:59:30;;;;;;;6.13;2.03;;;11.90;99.90;;;;;;10260458;28;20044;-48
2021/05/16 13:04:44;;;;;;;3.75;0.80;;;12.70;99.90;;;;;;10111622;28;20902;-48
2021/05/16 13:09:54;;;;;;;2.60;0.77;;;13.10;99.90;;;;;;10140237;28;20786;-48
2021/05/16 13:20:36;;;;;;;0.38;0.17;;;14.40;99.90;;;;;;10127160;28;20054;-48
2021/05/16 13:25:48;;;;;;;0.68;0.25;;;15.10;99.90;;;;;;10123818;28;20592;-48
2021/05/16 13:30:54;;;;;;;0.30;0.20;;;16.30;99.90;;;;;;10144846;28;20572;-48
2021/05/16 13:35:59;;;;;;;0.57;0.03;;;16.90;99.90;;;;;;10141195;28;20189;-48
2021/05/16 13:41:08;;;;;;;0.45;0.20;;;16.70;99.90;;;;;;10127268;28;20629;-48
2021/05/16 13:46:34;;;;;;;0.70;0.22;;;16.10;99.90;;;;;;10368762;28;20115;-48
2021/05/16 13:51:37;;;;;;;0.40;0.10;;;16.80;99.90;;;;;;10362960;28;20541;-48
2021/05/16 13:56:39;;;;;;;1.85;0.30;;;16.70;99.90;;;;;;10362758;28;20057;-48
2021/05/16 14:01:44;;;;;;;0.35;0.20;;;16.60;99.90;;;;;;10358994;28;20538;-48
2021/05/16 14:06:45;;;;;;;0.35;0.13;;;16.30;99.90;;;;;;10358281;28;20440;-48
2021/05/16 14:11:45;;;;;;;0.32;0.10;;;16.90;99.90;;;;;;10362117;28;20048;-48
2021/05/16 14:17:10;;;;;;;0.57;0.20;;;16.60;99.90;;;;;;10364986;28;20128;-48
2021/05/16 14:28:00;;;;;;;1.98;0.20;;;15.80;99.90;;;;;;10356077;28;20416;-47
2021/05/16 14:33:30;;;;;;;1.77;0.73;;;16.00;99.90;;;;;;10343075;28;20101;-47
2021/05/16 14:46:16;;;;;;;2.65;0.40;;;16.30;99.90;;;;;;10209613;28;20046;-47
2021/05/16 15:11:30;;;;;;;1.20;0.50;;;15.80;99.90;;;;;;10403437;22;20039;-85
2021/05/16 15:16:31;;;;;;;0.80;0.47;;;15.50;99.90;;;;;;10454823;28;20064;-83
2021/05/16 15:21:32;;;;;;;0.45;0.25;;;15.30;99.90;;;;;;10436635;28;20139;-83
2021/05/16 15:26:34;;;;;;;0.82;0.32;;;15.10;99.90;;;;;;10420810;28;20063;-83
2021/05/16 15:31:35;;;;;;;1.92;0.30;;;15.00;99.90;;;;;;10423429;28;20033;-83
2021/05/16 15:36:36;;;;;;;5.20;0.75;;;14.80;99.90;;;;;;10467959;28;20028;-83
2021/05/16 15:41:37;;;;;;;2.53;0.95;;;14.60;99.90;;;;;;10474895;28;20054;-85
2021/05/16 15:46:38;;;;;;;1.52;0.57;;;14.70;99.90;;;;;;10477703;28;20043;-85
2021/05/16 15:51:39;;;;;;;2.83;0.93;;;14.60;99.90;;;;;;10476137;28;20090;-86
2021/05/16 15:56:42;;;;;;;3.40;0.57;;;14.40;99.90;;;;;;10486674;28;20101;-86
2021/05/16 16:01:43;;;;;;;2.15;0.60;;;14.30;99.90;;;;;;10475332;28;20048;-84
2021/05/16 16:06:44;;;;;;;2.25;0.70;;;14.20;99.90;;;;;;10485484;28;20113;-86
2021/05/16 16:11:45;;;;;;;3.28;0.80;;;14.20;99.90;;;;;;10469263;28;20040;-85
2021/05/16 16:16:56;;;;;;;1.50;0.43;;;14.10;99.90;;;;;;10523296;27;20032;-88
2021/05/16 16:22:01;;;;;;;0.65;0.30;;;13.00;99.90;;;;;;10544753;22;20044;-44
2021/05/16 16:27:02;;;;;;;0.60;0.28;;;11.80;99.90;;;;;;10408898;28;20047;-45
2021/05/16 16:32:03;;;;;;;0.55;0.30;;;11.40;99.90;;;;;;10289024;28;20098;-46
2021/05/16 16:37:04;;;;;;;0.50;0.25;;;10.90;99.90;;;;;;10107284;28;20961;-45
2021/05/16 16:42:06;;;;;;;1.70;0.45;;;10.70;99.90;;;;;;10104887;28;20616;-45
2021/05/16 16:47:06;;;;;;;1.50;0.40;;;10.90;99.90;;;;;;10103570;28;20119;-44
2021/05/16 16:52:07;;;;;;;1.90;0.57;;;11.20;99.90;;;;;;10098253;28;20691;-44
2021/05/16 16:57:08;;;;;;;0.70;0.20;;;11.30;99.90;;;;;;10105168;28;21015;-44
2021/05/16 17:02:09;;;;;;;0.80;0.40;;;11.40;99.90;;;;;;10096720;28;20513;-45
2021/05/16 17:07:12;;;;;;;1.67;0.50;;;11.60;99.90;;;;;;10243020;28;20037;-44
2021/05/16 17:12:13;;;;;;;1.27;0.32;;;11.60;99.90;;;;;;10408916;28;20116;-45
2021/05/16 17:17:17;;;;;;;8.50;4.35;;;11.70;99.90;;;;;;10408217;28;20044;-45
2021/05/16 17:22:18;;;;;;;2.28;1.25;;;11.70;99.90;;;;;;10408825;28;20414;-44
2021/05/16 17:27:18;;;;;;;1.92;0.80;;;11.80;99.90;;;;;;10404955;28;20068;-45
2021/05/16 17:32:19;;;;;;;1.85;0.73;;;11.80;99.90;;;;;;10401621;28;20037;-45
2021/05/16 17:37:20;;;;;;;1.50;0.60;;;11.90;99.90;;;;;;10408404;28;20055;-45
2021/05/16 17:42:20;;;;;;;1.45;0.70;;;12.00;99.90;;;;;;10408368;28;20049;-45
2021/05/16 17:47:21;;;;;;;2.83;1.33;;;12.20;99.90;;;;;;10405228;28;20040;-45
2021/05/16 17:52:22;;;;;;;1.40;0.47;;;12.20;99.90;;;;;;10363544;28;20099;-45
2021/05/16 17:57:23;;;;;;;2.15;1.15;;;12.30;99.90;;;;;;10406606;28;20392;-45
2021/05/16 18:02:24;;;;;;;1.30;0.63;;;12.30;99.90;;;;;;10399542;28;21332;-45
2021/05/16 18:07:29;;;;;;;1.83;0.80;;;12.40;99.90;;;;;;10380612;28;20041;-45
2021/05/16 18:12:30;;;;;;;1.35;0.85;;;12.40;99.90;;;;;;10398866;28;20366;-45
2021/05/16 18:17:31;;;;;;;1.48;0.77;;;12.30;99.90;;;;;;10394631;28;20424;-45
2021/05/16 18:22:32;;;;;;;1.70;1.05;;;12.40;99.90;;;;;;10402741;28;21734;-45
2021/05/16 18:27:33;;;;;;;2.63;1.42;;;12.30;99.90;;;;;;10405866;28;20025;-45
2021/05/16 18:32:34;;;;;;;1.10;0.65;;;12.30;99.90;;;;;;10407793;28;20041;-45
2021/05/16 18:37:35;;;;;;;2.03;1.00;;;12.20;99.90;;;;;;10402532;28;20036;-45
2021/05/16 18:42:37;;;;;;;1.60;0.57;;;12.10;99.90;;;;;;10404126;28;20102;-45
2021/05/16 18:47:38;;;;;;;2.75;1.10;;;12.00;99.90;;;;;;10401302;28;20033;-45
2021/05/16 18:52:38;;;;;;;2.72;1.33;;;11.90;99.90;;;;;;10403084;28;20072;-45
2021/05/16 18:57:40;;;;;;;4.15;1.10;;;11.90;99.90;;;;;;10405238;28;20119;-45
2021/05/16 19:02:41;;;;;;;2.92;1.02;;;11.80;99.90;;;;;;10403214;28;20037;-45
2021/05/16 19:07:42;;;;;;;3.40;0.98;;;11.70;99.90;;;;;;10402870;28;20421;-45
2021/05/16 19:12:44;;;;;;;2.03;0.95;;;11.80;99.90;;;;;;10404148;28;20487;-45
2021/05/16 19:17:45;;;;;;;1.80;0.80;;;11.80;99.90;;;;;;10384061;28;20461;-45
2021/05/16 19:22:45;;;;;;;1.85;0.70;;;11.80;99.90;;;;;;10399520;28;20091;-45
2021/05/16 19:27:46;;;;;;;2.58;0.82;;;11.80;99.90;;;;;;10406566;28;20171;-45
2021/05/16 19:32:47;;;;;;;2.58;1.40;;;11.70;99.90;;;;;;10406409;28;20037;-45
2021/05/16 19:37:48;;;;;;;2.03;1.05;;;11.60;99.90;;;;;;10403704;28;20036;-45
2021/05/16 19:42:49;;;;;;;2.13;0.88;;;11.50;99.90;;;;;;10400091;28;20037;-45
2021/05/16 19:47:50;;;;;;;3.22;1.00;;;11.40;99.90;;;;;;10396102;28;20040;-45
2021/05/16 19:52:54;;;;;;;2.22;0.70;;;11.30;99.90;;;;;;10402317;28;20488;-45
2021/05/16 19:57:55;;;;;;;2.45;0.93;;;11.20;99.90;;;;;;10401898;28;20197;-48
2021/05/16 20:02:56;;;;;;;1.10;0.47;;;11.10;99.90;;;;;;10400585;28;20048;-45
2021/05/16 20:07:57;;;;;;;1.83;1.10;;;11.10;99.90;;;;;;10401948;28;20080;-45
2021/05/16 20:12:58;;;;;;;2.72;1.08;;;10.90;99.90;;;;;;10408569;28;20052;-45
2021/05/16 20:17:58;;;;;;;3.10;1.73;;;10.90;99.90;;;;;;10383134;28;20273;-45
2021/05/16 20:23:00;;;;;;;4.78;1.00;;;10.70;99.90;;;;;;10410090;28;20056;-45
2021/05/16 20:28:01;;;;;;;3.13;0.93;;;10.70;99.90;;;;;;10408860;28;20087;-45
2021/05/16 20:33:11;;;;;;;1.90;0.77;;;10.50;99.90;;;;;;10404005;28;20041;-45
2021/05/16 20:38:12;;;;;;;3.72;0.85;;;10.40;99.90;;;;;;10405925;28;20095;-45
2021/05/16 20:43:13;;;;;;;0.88;0.35;;;10.40;99.90;;;;;;10412663;28;20179;-45
2021/05/16 20:48:15;;;;;;;2.17;0.90;;;10.30;99.90;;;;;;10417628;28;20565;-45
2021/05/16 20:53:17;;;;;;;3.42;0.60;;;10.30;99.90;;;;;;10408003;28;20041;-45
2021/05/16 20:58:18;;;;;;;3.58;1.25;;;10.20;99.90;;;;;;10408114;28;20822;-45
2021/05/16 21:03:18;;;;;;;1.88;0.93;;;10.10;99.90;;;;;;10415590;28;20091;-45
2021/05/16 21:08:19;;;;;;;3.35;0.90;;;10.00;99.90;;;;;;10411291;28;20546;-46
2021/05/16 21:13:21;;;;;;;3.90;1.00;;;10.00;99.90;;;;;;10419893;28;20064;-45
2021/05/16 21:18:22;;;;;;;4.93;0.98;;;9.90;99.90;;;;;;10417777;28;20049;-45
2021/05/16 21:23:23;;;;;;;5.60;1.02;;;10.00;99.90;;;;;;10413786;28;20056;-45
2021/05/16 21:28:24;;;;;;;3.78;1.08;;;9.90;99.90;;;;;;10413829;28;20037;-45
2021/05/16 21:33:25;;;;;;;6.07;0.82;;;9.90;99.90;;;;;;10407781;28;20442;-45
2021/05/16 21:38:26;;;;;;;1.17;0.52;;;9.90;99.90;;;;;;10408652;28;20051;-46
2021/05/16 21:43:28;;;;;;;1.60;0.70;;;9.80;99.90;;;;;;10410851;28;20059;-45
2021/05/16 21:48:29;;;;;;;5.70;0.52;;;9.80;99.90;;;;;;10413437;28;20102;-45
2021/05/16 21:53:29;;;;;;;1.33;0.47;;;9.70;99.90;;;;;;10391140;28;20128;-45
2021/05/16 21:58:30;;;;;;;2.90;0.82;;;9.70;99.90;;;;;;10408949;28;20136;-45
2021/05/16 22:03:31;;;;;;;6.05;0.75;;;9.70;99.90;;;;;;10407931;28;20091;-45
2021/05/16 22:08:33;;;;;;;5.35;1.13;;;9.70;99.90;;;;;;10405768;28;20059;-45
2021/05/16 22:13:34;;;;;;;4.82;0.90;;;9.80;99.90;;;;;;10410825;28;20606;-45
2021/05/16 22:18:35;;;;;;;0.90;0.32;;;9.80;99.90;;;;;;10392601;28;20587;-45
2021/05/16 22:23:37;;;;;;;2.50;0.73;;;9.90;99.90;;;;;;10407618;28;20056;-45
2021/05/16 22:28:38;;;;;;;2.75;0.95;;;10.00;99.90;;;;;;10390851;28;20029;-45
2021/05/16 22:33:39;;;;;;;2.17;1.08;;;10.00;99.90;;;;;;10404713;28;20173;-45
2021/05/16 22:38:40;;;;;;;4.00;1.52;;;10.10;99.90;;;;;;10405593;28;20044;-45
2021/05/16 22:43:40;;;;;;;6.47;2.30;;;10.10;99.90;;;;;;10406645;28;20478;-45
2021/05/16 22:48:41;;;;;;;2.78;1.17;;;10.20;99.90;;;;;;10410924;28;20698;-45
2021/05/16 22:53:42;;;;;;;4.47;1.98;;;10.30;99.90;;;;;;10407448;28;20033;-45
2021/05/16 22:58:42;;;;;;;7.95;1.30;;;10.70;99.90;;;;;;10407634;28;20644;-45
2021/05/16 23:03:43;;;;;;;4.95;1.55;;;10.80;99.90;;;;;;10406058;28;20029;-45
2021/05/16 23:08:46;;;;;;;1.27;0.55;;;10.80;99.90;;;;;;10407937;28;20037;-45
2021/05/16 23:13:47;;;;;;;1.35;0.70;;;10.80;99.90;;;;;;10408378;28;20095;-45
2021/05/16 23:18:49;;;;;;;2.33;0.98;;;10.70;99.90;;;;;;10408961;28;20558;-45
2021/05/16 23:23:50;;;;;;;1.25;0.68;;;10.50;99.90;;;;;;10403684;28;20033;-45
2021/05/16 23:28:51;;;;;;;0.73;0.30;;;10.50;99.90;;;;;;10407193;28;20041;-45
2021/05/16 23:33:53;;;;;;;0.77;0.40;;;10.30;99.90;;;;;;10405785;28;20064;-45
2021/05/16 23:38:53;;;;;;;0.95;0.52;;;10.30;99.90;;;;;;10406088;28;20416;-45
2021/05/16 23:43:54;;;;;;;1.95;1.00;;;10.20;99.90;;;;;;10412648;28;20044;-46
2021/05/16 23:48:55;;;;;;;1.58;0.60;;;10.10;99.90;;;;;;10417613;28;20652;-45
2021/05/16 23:53:56;;;;;;;1.27;0.40;;;10.10;99.90;;;;;;10413894;28;20208;-45
2021/05/16 23:58:57;;;;;;;1.20;0.93;;;10.00;99.90;;;;;;10416171;28;20507;-46
